Time;durP1;ratioP1;P1;durP2;ratioP2;P2;SDS_P1;SDS_P2;PMS_P1;PMS_P2;Temp;Humidity;BMP_temperature;BMP_pressure;BME280_temperature;BME280_humidity;BME280_pressure;Samples;Min_cycle;Max_cycle;Signal;HPM_P1;HPM_P2
2021/07/26 00:00:04;;;;;;;0.00;0.00;;;19.10;99.90;;;;;;5126139;27;20100;-83
2021/07/26 00:02:51;;;;;;;0.00;0.00;;;19.00;99.90;;;;;;5136926;27;20042;-84
2021/07/26 00:05:38;;;;;;;0.00;0.00;;;19.00;99.90;;;;;;5120326;27;20043;-85
2021/07/26 00:08:26;;;;;;;0.00;0.00;;;18.90;99.90;;;;;;5124036;27;20077;-83
2021/07/26 00:11:14;;;;;;;0.00;0.00;;;19.00;99.90;;;;;;5130339;27;20047;-85
2021/07/26 00:14:01;;;;;;;0.00;0.00;;;18.80;99.90;;;;;;5123185;27;20086;-86
2021/07/26 00:16:48;;;;;;;0.00;0.00;;;18.80;99.90;;;;;;5133277;27;20054;-85
2021/07/26 00:19:35;;;;;;;0.00;0.00;;;18.80;99.90;;;;;;5126997;27;20039;-84
2021/07/26 00:22:22;;;;;;;0.00;0.00;;;18.60;99.90;;;;;;5145740;27;20414;-84
2021/07/26 00:25:13;;;;;;;0.00;0.00;;;18.70;99.90;;;;;;5141067;27;20507;-86
2021/07/26 00:28:00;;;;;;;0.00;0.00;;;18.60;99.90;;;;;;5127714;27;20138;-85
2021/07/26 00:30:47;;;;;;;0.00;0.00;;;18.60;99.90;;;;;;5122043;27;20047;-85
2021/07/26 00:34:07;;;;;;;0.00;0.00;;;18.60;99.90;;;;;;5128184;27;20122;-85
2021/07/26 00:36:56;;;;;;;0.00;0.00;;;18.50;99.90;;;;;;5117141;27;20058;-83
2021/07/26 00:39:43;;;;;;;0.00;0.00;;;18.40;99.90;;;;;;5140741;27;20043;-84
2021/07/26 00:42:31;;;;;;;0.00;0.00;;;18.30;99.90;;;;;;5138823;27;20089;-85
2021/07/26 00:45:18;;;;;;;0.00;0.00;;;18.30;99.90;;;;;;5128339;27;20066;-85
2021/07/26 00:48:06;;;;;;;0.00;0.00;;;18.30;99.90;;;;;;5123305;27;20051;-84
2021/07/26 00:50:53;;;;;;;0.00;0.00;;;18.30;99.90;;;;;;5130764;27;20391;-85
2021/07/26 00:53:40;;;;;;;0.10;0.00;;;18.10;99.90;;;;;;5127046;27;20095;-85
2021/07/26 00:56:28;;;;;;;0.00;0.00;;;18.00;99.90;;;;;;5116555;27;20487;-85
2021/07/26 00:59:17;;;;;;;0.00;0.00;;;17.80;99.90;;;;;;5128971;27;20047;-86
2021/07/26 01:02:04;;;;;;;0.00;0.00;;;17.80;99.90;;;;;;5127919;27;20530;-86
2021/07/26 01:04:51;;;;;;;0.00;0.00;;;17.90;99.90;;;;;;5127506;27;20046;-85
2021/07/26 01:07:39;;;;;;;0.00;0.00;;;17.90;99.90;;;;;;5127703;27;20095;-85
2021/07/26 01:10:26;;;;;;;0.00;0.00;;;17.80;99.90;;;;;;5128349;27;20049;-85
2021/07/26 01:13:13;;;;;;;0.00;0.00;;;18.70;99.90;;;;;;5125406;27;20109;-85
2021/07/26 01:16:03;;;;;;;0.00;0.00;;;17.80;99.90;;;;;;5140582;27;20342;-86
2021/07/26 01:18:51;;;;;;;0.00;0.00;;;17.80;99.90;;;;;;5121819;27;20043;-85
2021/07/26 01:21:39;;;;;;;0.00;0.00;;;17.90;99.90;;;;;;5120450;27;20047;-83
2021/07/26 01:24:26;;;;;;;0.00;0.00;;;17.90;99.90;;;;;;5152650;27;20043;-84
2021/07/26 01:27:13;;;;;;;0.00;0.00;;;17.90;99.90;;;;;;5115955;27;20097;-83
2021/07/26 01:30:00;;;;;;;0.00;0.00;;;19.00;99.90;;;;;;5120825;27;20088;-84
2021/07/26 01:32:47;;;;;;;0.00;0.00;;;17.90;99.90;;;;;;5123396;27;20078;-85
2021/07/26 01:35:35;;;;;;;0.00;0.00;;;17.80;99.90;;;;;;5122979;27;20042;-85
2021/07/26 01:38:23;;;;;;;0.00;0.00;;;17.80;99.90;;;;;;5128102;27;20043;-85
2021/07/26 01:41:11;;;;;;;0.00;0.00;;;17.80;99.90;;;;;;5123887;27;20042;-84
2021/07/26 01:44:10;;;;;;;0.00;0.00;;;17.90;99.90;;;;;;5131496;27;20029;-84
2021/07/26 01:47:05;;;;;;;0.00;0.00;;;17.90;99.90;;;;;;5124261;27;20044;-82
2021/07/26 01:49:58;;;;;;;0.00;0.00;;;17.90;99.90;;;;;;5137361;27;20039;-83
2021/07/26 01:52:46;;;;;;;0.00;0.00;;;17.90;99.90;;;;;;5140316;27;20039;-82
2021/07/26 01:55:34;;;;;;;0.00;0.00;;;17.90;99.90;;;;;;5122457;27;20051;-84
2021/07/26 01:58:22;;;;;;;0.00;0.00;;;17.90;99.90;;;;;;5130698;27;20047;-85
2021/07/26 02:01:09;;;;;;;0.00;0.00;;;18.00;99.90;;;;;;5128820;27;20577;-83
2021/07/26 02:03:56;;;;;;;0.00;0.00;;;17.90;99.90;;;;;;5143027;27;20079;-85
2021/07/26 02:06:44;;;;;;;0.00;0.00;;;17.70;99.90;;;;;;5120911;27;20051;-82
2021/07/26 02:09:31;;;;;;;0.00;0.00;;;17.80;99.90;;;;;;5126498;27;20035;-86
2021/07/26 02:12:19;;;;;;;0.00;0.00;;;17.90;99.90;;;;;;5118756;27;20110;-83
2021/07/26 02:15:08;;;;;;;0.00;0.00;;;17.90;99.90;;;;;;5123779;27;20046;-85
2021/07/26 02:17:55;;;;;;;0.00;0.00;;;18.00;99.90;;;;;;5140129;27;20102;-85
2021/07/26 02:20:42;;;;;;;0.00;0.00;;;18.00;99.90;;;;;;5125836;27;20100;-84
2021/07/26 02:23:29;;;;;;;0.00;0.00;;;18.10;99.90;;;;;;5138738;27;20134;-85
2021/07/26 02:26:16;;;;;;;0.00;0.00;;;18.10;99.90;;;;;;5122243;28;20472;-83
2021/07/26 02:29:05;;;;;;;0.03;0.03;;;18.10;99.90;;;;;;5130331;28;20051;-85
2021/07/26 02:31:53;;;;;;;0.00;0.00;;;18.10;99.90;;;;;;5119176;27;20051;-86
2021/07/26 02:34:40;;;;;;;0.00;0.00;;;18.10;99.90;;;;;;5129960;27;20034;-85
2021/07/26 02:37:27;;;;;;;0.00;0.00;;;19.20;99.90;;;;;;5123028;28;20062;-84
2021/07/26 02:40:15;;;;;;;0.00;0.00;;;18.10;99.90;;;;;;5122328;27;20104;-83
2021/07/26 02:43:02;;;;;;;0.00;0.00;;;18.10;99.90;;;;;;5141724;27;20562;-83
2021/07/26 02:45:50;;;;;;;0.00;0.00;;;18.10;99.90;;;;;;5132563;27;20056;-85
2021/07/26 02:48:39;;;;;;;0.10;0.00;;;18.20;99.90;;;;;;5129124;27;20106;-85
2021/07/26 02:51:26;;;;;;;0.00;0.00;;;18.20;99.90;;;;;;5133998;27;20047;-85
2021/07/26 02:54:13;;;;;;;0.00;0.00;;;18.10;99.90;;;;;;5130613;27;20099;-83
2021/07/26 02:57:00;;;;;;;0.00;0.00;;;18.10;99.90;;;;;;5124350;27;20047;-84
2021/07/26 02:59:48;;;;;;;0.00;0.00;;;18.50;99.90;;;;;;5131709;27;20043;-85
2021/07/26 03:02:37;;;;;;;0.00;0.00;;;18.10;99.90;;;;;;5145102;27;20095;-86
2021/07/26 03:05:27;;;;;;;0.00;0.00;;;18.00;99.90;;;;;;5131769;27;20440;-83
2021/07/26 03:08:14;;;;;;;0.00;0.00;;;18.00;99.90;;;;;;5134073;27;20050;-84
2021/07/26 03:11:01;;;;;;;0.00;0.00;;;17.90;99.90;;;;;;5128863;27;20062;-84
2021/07/26 03:13:48;;;;;;;0.00;0.00;;;17.90;99.90;;;;;;5131944;27;20068;-87
2021/07/26 03:16:35;;;;;;;0.00;0.00;;;17.90;99.90;;;;;;5124247;27;20039;-83
2021/07/26 03:19:24;;;;;;;0.00;0.00;;;18.00;99.90;;;;;;5131041;27;20063;-85
2021/07/26 03:23:07;;;;;;;0.00;0.00;;;18.00;99.90;;;;;;5130277;27;20054;-86
2021/07/26 03:25:54;;;;;;;0.00;0.00;;;18.00;99.90;;;;;;5049419;28;20105;-85
2021/07/26 03:28:41;;;;;;;0.00;0.00;;;17.90;99.90;;;;;;5057565;28;20087;-85
2021/07/26 03:31:29;;;;;;;0.00;0.00;;;17.90;99.90;;;;;;5125402;27;20047;-85
2021/07/26 03:34:16;;;;;;;0.00;0.00;;;17.90;99.90;;;;;;5136410;27;20035;-85
2021/07/26 03:37:05;;;;;;;0.00;0.00;;;17.80;99.90;;;;;;5130583;27;20413;-82
2021/07/26 03:39:52;;;;;;;0.00;0.00;;;17.70;99.90;;;;;;5133802;27;20035;-84
2021/07/26 03:42:41;;;;;;;0.00;0.00;;;17.70;99.90;;;;;;5131489;27;20143;-85
2021/07/26 03:45:29;;;;;;;0.00;0.00;;;17.70;99.90;;;;;;5129409;27;20107;-85
2021/07/26 03:48:16;;;;;;;0.00;0.00;;;17.70;99.90;;;;;;5131492;27;20303;-85
2021/07/26 03:51:03;;;;;;;0.00;0.00;;;17.80;99.90;;;;;;5129444;27;20069;-83
2021/07/26 03:53:53;;;;;;;0.00;0.00;;;17.80;99.90;;;;;;5126660;27;20125;-85
2021/07/26 03:56:40;;;;;;;0.00;0.00;;;17.90;99.90;;;;;;5126843;27;20046;-84
2021/07/26 03:59:27;;;;;;;0.00;0.00;;;17.90;99.90;;;;;;5137820;27;20106;-84
2021/07/26 04:02:14;;;;;;;0.00;0.00;;;17.90;99.90;;;;;;5144792;27;20046;-84
2021/07/26 04:05:02;;;;;;;0.00;0.00;;;17.90;99.90;;;;;;5137114;27;20049;-86
2021/07/26 04:07:50;;;;;;;0.00;0.00;;;17.80;99.90;;;;;;5122119;27;20120;-85
2021/07/26 04:10:41;;;;;;;0.00;0.00;;;17.80;99.90;;;;;;5126319;27;20151;-86
2021/07/26 04:13:28;;;;;;;0.00;0.00;;;17.90;99.90;;;;;;5130952;27;20047;-84
2021/07/26 04:16:15;;;;;;;0.00;0.00;;;18.10;99.90;;;;;;5117462;27;20047;-84
2021/07/26 04:19:03;;;;;;;0.00;0.00;;;18.00;99.90;;;;;;5125078;27;20047;-83
2021/07/26 04:21:56;;;;;;;0.00;0.00;;;18.00;99.90;;;;;;5128185;27;20039;-86
2021/07/26 04:24:43;;;;;;;0.00;0.00;;;19.10;99.90;;;;;;5128638;27;20039;-86
2021/07/26 04:27:35;;;;;;;0.00;0.00;;;18.10;99.90;;;;;;5135928;27;20050;-85
2021/07/26 04:30:22;;;;;;;0.00;0.00;;;18.20;99.90;;;;;;5119080;27;20123;-85
2021/07/26 04:33:11;;;;;;;0.00;0.00;;;18.20;99.90;;;;;;5122118;27;20052;-84
2021/07/26 04:36:01;;;;;;;0.00;0.00;;;18.30;99.90;;;;;;5143148;27;20099;-82
2021/07/26 04:38:48;;;;;;;0.00;0.00;;;18.30;99.90;;;;;;5142954;27;20111;-83
2021/07/26 04:41:35;;;;;;;0.00;0.00;;;18.30;99.90;;;;;;5130409;27;20470;-86
2021/07/26 04:44:23;;;;;;;0.05;0.05;;;18.20;99.90;;;;;;5128683;27;20053;-85
2021/07/26 04:47:10;;;;;;;0.00;0.00;;;18.40;99.90;;;;;;5120611;27;20047;-84
2021/07/26 04:49:58;;;;;;;0.00;0.00;;;18.20;99.90;;;;;;5134003;27;20043;-82
2021/07/26 04:52:45;;;;;;;0.00;0.00;;;18.20;99.90;;;;;;5129151;27;20039;-82
2021/07/26 04:55:32;;;;;;;0.00;0.00;;;18.20;99.90;;;;;;5130735;27;20097;-85
2021/07/26 04:58:19;;;;;;;0.00;0.00;;;18.20;99.90;;;;;;5128308;27;20102;-84
2021/07/26 05:01:07;;;;;;;0.00;0.00;;;18.20;99.90;;;;;;5125406;27;20052;-86
2021/07/26 05:03:55;;;;;;;0.00;0.00;;;18.30;99.90;;;;;;5133287;27;20039;-85
2021/07/26 05:06:42;;;;;;;0.00;0.00;;;18.20;99.90;;;;;;5131168;27;20106;-85
2021/07/26 05:09:30;;;;;;;0.00;0.00;;;18.30;99.90;;;;;;5117301;27;20078;-86
2021/07/26 05:12:17;;;;;;;0.00;0.00;;;18.30;99.90;;;;;;5129066;27;20126;-85
2021/07/26 05:15:05;;;;;;;0.00;0.00;;;18.40;99.90;;;;;;5118932;27;20038;-81
2021/07/26 05:17:54;;;;;;;0.00;0.00;;;18.40;99.90;;;;;;5130841;27;20074;-86
2021/07/26 05:20:41;;;;;;;0.00;0.00;;;18.50;99.90;;;;;;5120282;27;20040;-85
2021/07/26 05:23:28;;;;;;;0.00;0.00;;;18.50;99.90;;;;;;5111955;27;20131;-83
2021/07/26 05:26:15;;;;;;;0.00;0.00;;;18.60;99.90;;;;;;5117151;27;20039;-82
2021/07/26 05:29:02;;;;;;;0.00;0.00;;;18.60;99.90;;;;;;5118122;27;20126;-85
2021/07/26 05:31:49;;;;;;;0.00;0.00;;;18.70;99.90;;;;;;5128807;27;20125;-83
2021/07/26 05:34:38;;;;;;;0.00;0.00;;;18.60;99.90;;;;;;5124055;27;20175;-81
2021/07/26 05:37:25;;;;;;;0.00;0.00;;;18.80;99.90;;;;;;5138295;27;20047;-83
2021/07/26 05:40:12;;;;;;;0.00;0.00;;;18.80;99.90;;;;;;5130975;27;20487;-83
2021/07/26 05:43:00;;;;;;;0.00;0.00;;;18.90;99.90;;;;;;5128045;27;20047;-83
2021/07/26 05:45:47;;;;;;;0.00;0.00;;;19.00;99.90;;;;;;5119555;27;20130;-84
2021/07/26 05:48:34;;;;;;;0.00;0.00;;;19.10;99.90;;;;;;5119918;27;20048;-85
2021/07/26 05:51:22;;;;;;;0.00;0.00;;;19.20;99.90;;;;;;5127500;27;20165;-86
2021/07/26 05:54:10;;;;;;;0.00;0.00;;;19.40;99.90;;;;;;5128825;27;20054;-83
2021/07/26 05:56:57;;;;;;;0.00;0.00;;;19.40;99.90;;;;;;5119535;27;20075;-84
2021/07/26 05:59:44;;;;;;;0.00;0.00;;;21.10;99.90;;;;;;5118284;27;20102;-84
2021/07/26 06:02:31;;;;;;;0.00;0.00;;;19.70;99.90;;;;;;5126086;27;20079;-85
2021/07/26 06:05:18;;;;;;;0.00;0.00;;;21.10;99.90;;;;;;5114794;27;20039;-85
2021/07/26 06:08:07;;;;;;;0.00;0.00;;;19.80;99.90;;;;;;5113878;27;20133;-87
2021/07/26 06:10:54;;;;;;;0.00;0.00;;;19.90;99.90;;;;;;5121793;27;20130;-86
2021/07/26 06:13:41;;;;;;;0.00;0.00;;;20.00;99.90;;;;;;5115248;28;20039;-83
2021/07/26 06:16:28;;;;;;;0.00;0.00;;;20.20;99.90;;;;;;5119550;27;20062;-86
2021/07/26 06:19:19;;;;;;;0.00;0.00;;;20.40;99.90;;;;;;5115077;27;20044;-85
2021/07/26 06:22:06;;;;;;;0.00;0.00;;;20.50;99.90;;;;;;5114941;27;20039;-85
2021/07/26 06:24:54;;;;;;;0.00;0.00;;;20.60;99.90;;;;;;5114585;27;20035;-86
2021/07/26 06:27:41;;;;;;;0.00;0.00;;;21.60;99.90;;;;;;5111267;27;20074;-84
2021/07/26 06:30:29;;;;;;;0.00;0.00;;;21.20;99.90;;;;;;5111729;27;20066;-86
2021/07/26 06:33:16;;;;;;;0.00;0.00;;;20.80;99.90;;;;;;5108773;27;20189;-84
2021/07/26 06:36:04;;;;;;;0.00;0.00;;;20.80;99.90;;;;;;5127667;27;20516;-86
2021/07/26 06:38:51;;;;;;;0.00;0.00;;;21.00;99.90;;;;;;5112176;28;20039;-85
2021/07/26 06:41:40;;;;;;;0.00;0.00;;;21.00;99.90;;;;;;5107514;27;20040;-85
2021/07/26 06:44:27;;;;;;;0.00;0.00;;;21.10;99.90;;;;;;5106632;27;20075;-86
2021/07/26 06:47:16;;;;;;;0.00;0.00;;;21.20;99.90;;;;;;5105034;27;20047;-86
2021/07/26 06:50:04;;;;;;;0.00;0.00;;;21.20;99.90;;;;;;5103140;27;20048;-84
2021/07/26 06:52:51;;;;;;;0.00;0.00;;;21.30;99.90;;;;;;5110362;27;20046;-83
2021/07/26 06:55:38;;;;;;;0.00;0.00;;;21.40;99.90;;;;;;5108931;27;20399;-85
2021/07/26 06:58:26;;;;;;;0.00;0.00;;;21.40;99.90;;;;;;5112182;27;20093;-83
2021/07/26 07:01:15;;;;;;;0.00;0.00;;;21.40;99.90;;;;;;5100497;27;20035;-83
2021/07/26 07:04:02;;;;;;;0.00;0.00;;;21.20;99.90;;;;;;5106240;27;20058;-85
2021/07/26 07:06:49;;;;;;;0.00;0.00;;;21.10;99.90;;;;;;5094481;27;20100;-86
2021/07/26 07:09:36;;;;;;;0.00;0.00;;;21.20;99.90;;;;;;5112135;28;20130;-85
2021/07/26 07:12:23;;;;;;;0.00;0.00;;;21.30;99.90;;;;;;5107280;28;20088;-86
2021/07/26 07:15:18;;;;;;;0.00;0.00;;;21.60;99.90;;;;;;5115457;28;20035;-86
2021/07/26 07:18:05;;;;;;;0.00;0.00;;;21.40;99.90;;;;;;5111282;27;20047;-85
2021/07/26 07:20:53;;;;;;;0.00;0.00;;;21.40;99.90;;;;;;5113112;27;20498;-83
2021/07/26 07:23:40;;;;;;;0.00;0.00;;;21.40;99.90;;;;;;5116311;28;20039;-86
2021/07/26 07:26:28;;;;;;;0.00;0.00;;;21.50;99.90;;;;;;5105917;27;20510;-84
2021/07/26 07:29:16;;;;;;;0.00;0.00;;;21.50;99.90;;;;;;5107520;27;20126;-83
2021/07/26 07:32:05;;;;;;;0.00;0.00;;;21.50;99.90;;;;;;5117682;27;20114;-82
2021/07/26 07:34:52;;;;;;;0.00;0.00;;;21.60;99.90;;;;;;5120273;27;20050;-86
2021/07/26 07:37:39;;;;;;;0.00;0.00;;;21.80;99.90;;;;;;5105346;27;20135;-83
2021/07/26 07:40:26;;;;;;;0.00;0.00;;;21.90;99.90;;;;;;5107995;27;20051;-83
2021/07/26 07:43:14;;;;;;;0.00;0.00;;;21.90;99.90;;;;;;5118329;27;20506;-85
2021/07/26 07:46:01;;;;;;;0.00;0.00;;;22.00;99.90;;;;;;5105536;27;20646;-86
2021/07/26 07:48:49;;;;;;;0.00;0.00;;;22.00;99.90;;;;;;5115509;27;20039;-83
2021/07/26 07:51:36;;;;;;;0.00;0.00;;;22.10;99.90;;;;;;5109068;27;20063;-85
2021/07/26 07:54:24;;;;;;;0.00;0.00;;;22.20;99.90;;;;;;5111215;27;20035;-84
2021/07/26 07:57:12;;;;;;;0.00;0.00;;;22.30;99.90;;;;;;5117940;27;20118;-85
2021/07/26 07:59:59;;;;;;;0.00;0.00;;;22.40;99.90;;;;;;5110705;27;20421;-85
2021/07/26 08:02:47;;;;;;;0.00;0.00;;;22.30;99.90;;;;;;5109146;27;20067;-83
2021/07/26 08:05:36;;;;;;;0.00;0.00;;;22.40;99.90;;;;;;5102124;27;20491;-86
2021/07/26 08:08:23;;;;;;;0.00;0.00;;;22.40;99.90;;;;;;5106119;27;20069;-87
2021/07/26 08:11:12;;;;;;;0.00;0.00;;;22.40;99.90;;;;;;5109667;27;20184;-86
2021/07/26 08:13:59;;;;;;;0.00;0.00;;;22.40;99.90;;;;;;5108272;27;20039;-82
2021/07/26 08:16:46;;;;;;;0.00;0.00;;;22.50;99.90;;;;;;5097413;27;20080;-85
2021/07/26 08:19:34;;;;;;;0.00;0.00;;;22.50;99.90;;;;;;5099139;27;20524;-79
2021/07/26 08:22:22;;;;;;;0.00;0.00;;;22.60;99.90;;;;;;5109622;27;21468;-82
2021/07/26 08:25:11;;;;;;;0.00;0.00;;;22.60;99.90;;;;;;5098053;27;20411;-83
2021/07/26 08:27:59;;;;;;;0.00;0.00;;;22.60;99.90;;;;;;5094991;27;20047;-82
2021/07/26 08:30:46;;;;;;;0.00;0.00;;;22.70;99.90;;;;;;5111465;27;20739;-86
2021/07/26 08:33:33;;;;;;;0.00;0.00;;;22.70;99.90;;;;;;5111833;27;20055;-85
2021/07/26 08:36:21;;;;;;;0.00;0.00;;;22.80;99.90;;;;;;5112021;27;20042;-85
2021/07/26 08:39:09;;;;;;;0.00;0.00;;;22.90;99.90;;;;;;5122916;27;20200;-86
2021/07/26 08:41:57;;;;;;;0.00;0.00;;;22.90;99.90;;;;;;5107991;27;20051;-85
2021/07/26 08:44:44;;;;;;;0.00;0.00;;;22.90;99.90;;;;;;5117452;27;20100;-85
2021/07/26 08:47:33;;;;;;;0.00;0.00;;;23.00;99.90;;;;;;5101465;27;20047;-87
2021/07/26 08:50:21;;;;;;;0.00;0.00;;;22.90;99.90;;;;;;5116216;27;20130;-86
2021/07/26 08:53:09;;;;;;;0.00;0.00;;;23.10;99.90;;;;;;5100295;27;20173;-86
2021/07/26 08:55:58;;;;;;;0.00;0.00;;;23.10;99.90;;;;;;5122240;27;20518;-86
2021/07/26 08:58:46;;;;;;;0.00;0.00;;;23.30;99.90;;;;;;5114728;27;20034;-87
2021/07/26 09:01:34;;;;;;;0.00;0.00;;;23.30;99.90;;;;;;5109050;27;20042;-87
2021/07/26 09:04:21;;;;;;;0.00;0.00;;;23.30;99.90;;;;;;5111958;27;20055;-86
2021/07/26 09:07:09;;;;;;;0.00;0.00;;;23.30;99.90;;;;;;5121482;27;20043;-87
2021/07/26 09:09:56;;;;;;;0.00;0.00;;;23.30;99.90;;;;;;5114441;27;20178;-86
2021/07/26 09:12:47;;;;;;;0.00;0.00;;;23.30;99.90;;;;;;5102393;27;20481;-86
2021/07/26 09:15:36;;;;;;;0.00;0.00;;;23.50;99.90;;;;;;5102067;27;20289;-86
2021/07/26 09:18:25;;;;;;;0.00;0.00;;;23.60;99.90;;;;;;5114680;27;20129;-85
2021/07/26 09:21:12;;;;;;;0.00;0.00;;;23.70;99.90;;;;;;5100805;27;20130;-82
2021/07/26 09:24:04;;;;;;;0.00;0.00;;;23.70;99.90;;;;;;5109632;27;20043;-86
2021/07/26 09:26:52;;;;;;;0.00;0.00;;;23.80;99.90;;;;;;5119985;27;20107;-85
2021/07/26 09:29:40;;;;;;;0.00;0.00;;;23.90;99.90;;;;;;5118822;27;20039;-87
2021/07/26 09:32:37;;;;;;;0.00;0.00;;;24.90;99.90;;;;;;5102861;27;20596;-86
2021/07/26 09:35:25;;;;;;;0.00;0.00;;;24.90;99.90;;;;;;5110301;27;20039;-86
2021/07/26 09:38:16;;;;;;;0.00;0.00;;;24.30;99.90;;;;;;5105039;27;20170;-86
2021/07/26 09:41:05;;;;;;;0.00;0.00;;;25.20;99.90;;;;;;5106269;27;20052;-86
2021/07/26 09:44:04;;;;;;;0.00;0.00;;;24.60;99.90;;;;;;5112371;27;20119;-85
2021/07/26 09:46:53;;;;;;;0.00;0.00;;;25.00;99.90;;;;;;5115962;27;20047;-86
2021/07/26 09:49:40;;;;;;;0.00;0.00;;;24.80;99.90;;;;;;5110950;27;20054;-86
2021/07/26 09:52:28;;;;;;;0.00;0.00;;;25.20;99.90;;;;;;5107807;27;20107;-87
2021/07/26 09:55:28;;;;;;;0.00;0.00;;;24.90;99.90;;;;;;5117951;27;20134;-84
2021/07/26 09:58:17;;;;;;;0.00;0.00;;;25.00;99.90;;;;;;5116229;27;20035;-85
2021/07/26 10:01:06;;;;;;;0.00;0.00;;;25.10;99.90;;;;;;5124119;27;20114;-86
2021/07/26 10:03:55;;;;;;;0.00;0.00;;;25.10;99.90;;;;;;5111291;27;20607;-87
2021/07/26 10:06:42;;;;;;;0.00;0.00;;;25.20;99.90;;;;;;5126727;27;20043;-87
2021/07/26 10:09:29;;;;;;;0.00;0.00;;;25.20;99.90;;;;;;5117135;27;20083;-86
2021/07/26 10:12:18;;;;;;;0.00;0.00;;;25.70;99.90;;;;;;5101502;27;20070;-86
2021/07/26 10:15:07;;;;;;;0.00;0.00;;;25.50;99.10;;;;;;5121475;27;20045;-87
2021/07/26 10:17:54;;;;;;;0.00;0.00;;;25.30;99.90;;;;;;5112957;28;20043;-85
2021/07/26 10:20:48;;;;;;;0.00;0.00;;;25.30;99.30;;;;;;5116067;28;20042;-86
2021/07/26 10:23:39;;;;;;;0.00;0.00;;;25.40;98.90;;;;;;5123908;28;20104;-86
2021/07/26 10:26:33;;;;;;;0.00;0.00;;;25.30;98.90;;;;;;5114317;27;20055;-86
2021/07/26 10:29:20;;;;;;;0.00;0.00;;;25.30;99.80;;;;;;5109018;27;20046;-86
2021/07/26 10:32:31;;;;;;;0.00;0.00;;;25.30;99.00;;;;;;5110658;28;20476;-86
2021/07/26 10:35:37;;;;;;;0.00;0.00;;;25.40;98.30;;;;;;5113847;27;20502;-84
2021/07/26 10:38:54;;;;;;;0.00;0.00;;;25.40;98.00;;;;;;5117359;28;20039;-87
2021/07/26 10:42:04;;;;;;;0.00;0.00;;;25.40;99.20;;;;;;5104886;28;20049;-89
2021/07/26 10:44:51;;;;;;;0.00;0.00;;;25.60;98.80;;;;;;5113029;27;20184;-87
2021/07/26 10:47:38;;;;;;;0.00;0.00;;;25.90;98.30;;;;;;5109406;28;20122;-85
2021/07/26 10:50:33;;;;;;;0.00;0.00;;;26.20;97.80;;;;;;5110179;27;20126;-87
2021/07/26 10:53:55;;;;;;;0.00;0.00;;;26.00;98.20;;;;;;5107221;27;20067;-87
2021/07/26 10:57:09;;;;;;;0.00;0.00;;;26.50;98.30;;;;;;5109251;27;20039;-87
2021/07/26 11:00:16;;;;;;;0.00;0.00;;;26.50;96.60;;;;;;5111003;28;20031;-87
2021/07/26 11:03:03;;;;;;;0.00;0.00;;;26.70;97.80;;;;;;5097204;28;20043;-86
2021/07/26 11:05:50;;;;;;;0.00;0.00;;;26.70;96.20;;;;;;5109588;27;20069;-87
2021/07/26 11:08:37;;;;;;;0.00;0.00;;;26.90;96.90;;;;;;5116604;27;20171;-87
2021/07/26 11:14:24;;;;;;;0.00;0.00;;;26.90;96.80;;;;;;5103589;27;20405;-87
2021/07/26 11:17:13;;;;;;;0.00;0.00;;;26.80;97.30;;;;;;5069406;28;20048;-87
2021/07/26 11:20:00;;;;;;;0.00;0.00;;;26.70;97.80;;;;;;5066273;28;20509;-86
2021/07/26 11:22:58;;;;;;;0.00;0.00;;;26.80;97.30;;;;;;5079586;28;20756;-87
2021/07/26 11:25:46;;;;;;;0.00;0.00;;;26.90;97.00;;;;;;5069349;28;20179;-87
2021/07/26 11:28:35;;;;;;;0.00;0.00;;;27.10;97.20;;;;;;5068413;28;20040;-88
2021/07/26 11:31:25;;;;;;;;;;;27.30;97.20;;;;;;5083239;28;20048;-85
2021/07/26 11:34:13;;;;;;;0.00;0.00;;;27.60;97.80;;;;;;5080240;28;20457;-88
2021/07/26 11:37:09;;;;;;;0.00;0.00;;;27.90;96.60;;;;;;5073370;28;20123;-84
2021/07/26 11:39:58;;;;;;;0.00;0.00;;;28.00;95.60;;;;;;5076888;28;20040;-87
2021/07/26 11:42:45;;;;;;;0.00;0.00;;;27.70;96.00;;;;;;5072207;28;20078;-85
2021/07/26 11:45:33;;;;;;;0.00;0.00;;;27.40;95.20;;;;;;5064498;28;20566;-87
2021/07/26 11:48:26;;;;;;;0.00;0.00;;;27.40;96.60;;;;;;5075912;28;20043;-87
2021/07/26 11:51:24;;;;;;;0.00;0.00;;;27.10;97.00;;;;;;5072102;28;20131;-85
2021/07/26 11:54:11;;;;;;;0.00;0.00;;;27.20;95.20;;;;;;5072729;28;20415;-87
2021/07/26 11:57:06;;;;;;;0.00;0.00;;;27.40;96.20;;;;;;5083277;28;20178;-87
2021/07/26 11:59:54;;;;;;;0.00;0.00;;;27.50;94.60;;;;;;5070745;28;20044;-87
2021/07/26 12:02:42;;;;;;;0.00;0.00;;;27.70;96.70;;;;;;5063866;28;20041;-87
2021/07/26 12:05:32;;;;;;;0.00;0.00;;;27.90;96.10;;;;;;5064608;28;20048;-85
2021/07/26 12:08:20;;;;;;;0.00;0.00;;;28.10;96.20;;;;;;5065892;28;20141;-87
2021/07/26 12:11:17;;;;;;;0.00;0.00;;;28.20;95.40;;;;;;5068165;28;20151;-86
2021/07/26 12:14:26;;;;;;;0.00;0.00;;;28.90;94.40;;;;;;5066975;28;20564;-85
2021/07/26 12:17:24;;;;;;;0.00;0.00;;;28.50;94.10;;;;;;5064648;28;20070;-88
2021/07/26 12:20:21;;;;;;;0.00;0.00;;;28.50;95.90;;;;;;5070782;28;20055;-87
2021/07/26 12:23:17;;;;;;;0.00;0.00;;;28.50;94.40;;;;;;5074666;28;20048;-87
2021/07/26 12:26:09;;;;;;;0.00;0.00;;;28.60;94.40;;;;;;5054462;28;20125;-87
2021/07/26 12:28:58;;;;;;;0.00;0.00;;;28.30;94.50;;;;;;5066168;28;20125;-88
2021/07/26 12:31:46;;;;;;;0.00;0.00;;;28.20;94.40;;;;;;5064206;28;20495;-87
2021/07/26 12:34:33;;;;;;;0.00;0.00;;;28.20;94.30;;;;;;5046040;28;20419;-87
2021/07/26 12:37:20;;;;;;;0.00;0.00;;;28.10;94.90;;;;;;5056230;28;20048;-87
2021/07/26 12:40:13;;;;;;;0.00;0.00;;;28.20;95.20;;;;;;5055748;28;20135;-83
2021/07/26 12:43:08;;;;;;;0.00;0.00;;;28.10;95.60;;;;;;5051980;28;20412;-86
2021/07/26 12:45:58;;;;;;;0.00;0.00;;;28.10;95.90;;;;;;5063255;28;20499;-87
2021/07/26 12:48:45;;;;;;;0.00;0.00;;;28.00;95.90;;;;;;5054959;28;20626;-87
2021/07/26 12:51:33;;;;;;;0.00;0.00;;;28.30;96.20;;;;;;5051149;28;20135;-86
2021/07/26 12:54:21;;;;;;;0.00;0.00;;;28.10;95.20;;;;;;5051880;28;20152;-88
2021/07/26 12:57:47;;;;;;;0.00;0.00;;;28.30;96.20;;;;;;5053514;28;20052;-87
2021/07/26 13:00:54;;;;;;;0.00;0.00;;;28.30;95.40;;;;;;5054045;28;20420;-88
2021/07/26 13:03:48;;;;;;;0.00;0.00;;;28.60;96.00;;;;;;5055719;28;20040;-86
2021/07/26 13:06:36;;;;;;;0.00;0.00;;;28.30;95.80;;;;;;5067724;28;20041;-85
2021/07/26 13:09:23;;;;;;;0.00;0.00;;;28.30;96.30;;;;;;5051630;28;20514;-87
2021/07/26 13:12:10;;;;;;;0.00;0.00;;;28.40;95.80;;;;;;5051068;28;20044;-87
2021/07/26 13:14:57;;;;;;;0.00;0.00;;;28.20;96.70;;;;;;5049045;28;20129;-88
2021/07/26 13:17:45;;;;;;;0.00;0.00;;;28.20;96.00;;;;;;5051935;28;20453;-88
2021/07/26 13:20:33;;;;;;;0.00;0.00;;;28.10;96.00;;;;;;5049383;28;20126;-87
2021/07/26 13:23:20;;;;;;;0.00;0.00;;;28.20;96.30;;;;;;5056575;28;20129;-87
2021/07/26 13:26:09;;;;;;;0.00;0.00;;;28.40;95.10;;;;;;5055236;28;20223;-86
2021/07/26 13:28:56;;;;;;;0.00;0.00;;;28.60;95.10;;;;;;5048322;28;20040;-88
2021/07/26 13:31:43;;;;;;;0.00;0.00;;;28.90;95.10;;;;;;5053097;28;20128;-86
2021/07/26 13:34:32;;;;;;;0.00;0.00;;;28.90;95.80;;;;;;5054325;28;20218;-87
2021/07/26 13:37:19;;;;;;;0.00;0.00;;;28.80;94.60;;;;;;5050356;28;20127;-88
2021/07/26 13:40:09;;;;;;;0.00;0.00;;;28.90;94.50;;;;;;5055066;28;20684;-88
2021/07/26 13:42:56;;;;;;;0.00;0.00;;;29.10;93.90;;;;;;5056023;28;20040;-85
2021/07/26 13:45:43;;;;;;;0.00;0.00;;;29.30;93.20;;;;;;5058154;28;20157;-84
2021/07/26 13:48:31;;;;;;;0.00;0.00;;;29.30;92.80;;;;;;5053099;28;20059;-89
2021/07/26 13:51:23;;;;;;;0.00;0.00;;;29.30;92.90;;;;;;5047777;28;20063;-87
2021/07/26 13:54:10;;;;;;;0.00;0.00;;;29.20;92.20;;;;;;5044278;28;20045;-86
2021/07/26 13:56:57;;;;;;;0.00;0.00;;;29.50;91.20;;;;;;5050683;28;20123;-88
2021/07/26 13:59:44;;;;;;;0.00;0.00;;;29.80;93.20;;;;;;5048052;28;20036;-89
2021/07/26 14:02:31;;;;;;;0.00;0.00;;;30.30;92.90;;;;;;5052301;28;20515;-88
2021/07/26 14:05:19;;;;;;;0.00;0.00;;;30.50;92.10;;;;;;5054450;28;20047;-87
2021/07/26 14:08:08;;;;;;;0.00;0.00;;;30.40;91.90;;;;;;5054395;28;20053;-83
2021/07/26 14:10:55;;;;;;;0.00;0.00;;;30.20;90.70;;;;;;5047192;28;20359;-87
2021/07/26 14:13:42;;;;;;;0.00;0.00;;;30.20;92.50;;;;;;5048622;28;20044;-88
2021/07/26 14:16:29;;;;;;;0.00;0.00;;;30.60;92.10;;;;;;5052662;28;20484;-85
2021/07/26 14:19:19;;;;;;;0.00;0.00;;;30.90;91.20;;;;;;5069982;28;20549;-88
2021/07/26 14:22:06;;;;;;;0.00;0.00;;;31.00;89.90;;;;;;5043627;28;20132;-89
2021/07/26 14:24:55;;;;;;;0.00;0.00;;;30.90;90.80;;;;;;5050006;28;20037;-87
2021/07/26 14:27:42;;;;;;;0.00;0.00;;;;;;;;;;5056668;28;20099;-84
2021/07/26 14:30:29;;;;;;;0.00;0.00;;;30.10;90.30;;;;;;5058995;28;20062;-87
2021/07/26 14:33:16;;;;;;;0.00;0.00;;;30.00;91.50;;;;;;5051878;28;20082;-87
2021/07/26 14:36:04;;;;;;;0.00;0.00;;;30.00;91.30;;;;;;5051060;28;20051;-87
2021/07/26 14:38:51;;;;;;;0.00;0.00;;;29.80;89.10;;;;;;5059184;28;20480;-88
2021/07/26 14:41:43;;;;;;;0.00;0.00;;;30.00;90.30;;;;;;5047939;28;20049;-88
2021/07/26 14:44:31;;;;;;;0.00;0.00;;;30.70;91.20;;;;;;5055241;28;20122;-86